sensor_id;sensor_type;location;lat;lon;timestamp;P1;durP1;ratioP1;P2;durP2;ratioP2
4448;SDS011;2237;51.870;6.160;2024-02-26T00:00:14;1.73;;;1.48;;
4448;SDS011;2237;51.870;6.160;2024-02-26T00:02:42;3.08;;;1.67;;
4448;SDS011;2237;51.870;6.160;2024-02-26T00:05:08;2.90;;;1.60;;
4448;SDS011;2237;51.870;6.160;2024-02-26T00:07:35;2.08;;;1.65;;
4448;SDS011;2237;51.870;6.160;2024-02-26T00:10:01;2.72;;;1.70;;
4448;SDS011;2237;51.870;6.160;2024-02-26T00:12:28;2.60;;;1.30;;
4448;SDS011;2237;51.870;6.160;2024-02-26T00:14:54;4.95;;;1.98;;
4448;SDS011;2237;51.870;6.160;2024-02-26T00:17:24;2.35;;;1.30;;
4448;SDS011;2237;51.870;6.160;2024-02-26T00:19:50;5.70;;;1.88;;
4448;SDS011;2237;51.870;6.160;2024-02-26T00:22:17;3.03;;;1.30;;
4448;SDS011;2237;51.870;6.160;2024-02-26T00:24:43;3.05;;;1.60;;
4448;SDS011;2237;51.870;6.160;2024-02-26T00:27:10;3.60;;;1.55;;
4448;SDS011;2237;51.870;6.160;2024-02-26T00:29:36;2.35;;;1.38;;
4448;SDS011;2237;51.870;6.160;2024-02-26T00:32:03;3.50;;;1.75;;
4448;SDS011;2237;51.870;6.160;2024-02-26T00:34:30;2.25;;;1.45;;
4448;SDS011;2237;51.870;6.160;2024-02-26T00:36:57;2.78;;;1.60;;
4448;SDS011;2237;51.870;6.160;2024-02-26T00:39:23;4.32;;;1.35;;
4448;SDS011;2237;51.870;6.160;2024-02-26T00:41:50;2.47;;;1.52;;
4448;SDS011;2237;51.870;6.160;2024-02-26T00:44:17;1.40;;;1.00;;
4448;SDS011;2237;51.870;6.160;2024-02-26T00:46:44;2.92;;;1.50;;
4448;SDS011;2237;51.870;6.160;2024-02-26T00:49:10;3.60;;;1.15;;
4448;SDS011;2237;51.870;6.160;2024-02-26T00:51:37;3.08;;;1.30;;
4448;SDS011;2237;51.870;6.160;2024-02-26T00:54:03;2.60;;;1.20;;
4448;SDS011;2237;51.870;6.160;2024-02-26T00:56:30;3.78;;;1.25;;
4448;SDS011;2237;51.870;6.160;2024-02-26T00:58:56;2.53;;;1.30;;
4448;SDS011;2237;51.870;6.160;2024-02-26T01:01:23;2.03;;;1.10;;
4448;SDS011;2237;51.870;6.160;2024-02-26T01:03:49;1.77;;;0.88;;
4448;SDS011;2237;51.870;6.160;2024-02-26T01:06:16;1.70;;;1.20;;
4448;SDS011;2237;51.870;6.160;2024-02-26T01:08:43;1.85;;;1.02;;
4448;SDS011;2237;51.870;6.160;2024-02-26T01:11:09;3.03;;;1.50;;
4448;SDS011;2237;51.870;6.160;2024-02-26T01:13:36;3.42;;;0.90;;
4448;SDS011;2237;51.870;6.160;2024-02-26T01:16:03;2.97;;;1.35;;
4448;SDS011;2237;51.870;6.160;2024-02-26T01:18:29;3.72;;;1.27;;
4448;SDS011;2237;51.870;6.160;2024-02-26T01:20:57;4.60;;;1.25;;
4448;SDS011;2237;51.870;6.160;2024-02-26T01:23:23;2.28;;;1.27;;
4448;SDS011;2237;51.870;6.160;2024-02-26T01:25:50;3.88;;;1.40;;
4448;SDS011;2237;51.870;6.160;2024-02-26T01:28:16;3.53;;;1.60;;
4448;SDS011;2237;51.870;6.160;2024-02-26T01:30:43;2.65;;;1.40;;
4448;SDS011;2237;51.870;6.160;2024-02-26T01:33:09;2.53;;;1.25;;
4448;SDS011;2237;51.870;6.160;2024-02-26T01:35:36;4.18;;;1.58;;
4448;SDS011;2237;51.870;6.160;2024-02-26T01:38:02;4.95;;;1.80;;
4448;SDS011;2237;51.870;6.160;2024-02-26T01:40:29;1.35;;;0.70;;
4448;SDS011;2237;51.870;6.160;2024-02-26T01:42:56;2.60;;;1.48;;
4448;SDS011;2237;51.870;6.160;2024-02-26T01:45:22;4.07;;;1.50;;
4448;SDS011;2237;51.870;6.160;2024-02-26T01:47:51;2.67;;;1.50;;
4448;SDS011;2237;51.870;6.160;2024-02-26T01:50:19;3.30;;;1.55;;
4448;SDS011;2237;51.870;6.160;2024-02-26T01:52:46;4.03;;;1.40;;
4448;SDS011;2237;51.870;6.160;2024-02-26T01:55:13;1.88;;;0.95;;
4448;SDS011;2237;51.870;6.160;2024-02-26T01:57:41;5.80;;;1.50;;
4448;SDS011;2237;51.870;6.160;2024-02-26T02:00:10;3.60;;;1.70;;
4448;SDS011;2237;51.870;6.160;2024-02-26T02:02:37;2.40;;;1.50;;
4448;SDS011;2237;51.870;6.160;2024-02-26T02:05:05;2.92;;;1.80;;
4448;SDS011;2237;51.870;6.160;2024-02-26T02:07:32;2.95;;;1.50;;
4448;SDS011;2237;51.870;6.160;2024-02-26T02:10:00;4.22;;;1.85;;
4448;SDS011;2237;51.870;6.160;2024-02-26T02:12:27;2.17;;;1.50;;
4448;SDS011;2237;51.870;6.160;2024-02-26T02:14:53;2.63;;;1.30;;
4448;SDS011;2237;51.870;6.160;2024-02-26T02:17:20;2.70;;;1.60;;
4448;SDS011;2237;51.870;6.160;2024-02-26T02:19:46;2.33;;;1.50;;
4448;SDS011;2237;51.870;6.160;2024-02-26T02:22:13;0.95;;;0.60;;
4448;SDS011;2237;51.870;6.160;2024-02-26T02:24:40;1.67;;;1.00;;
4448;SDS011;2237;51.870;6.160;2024-02-26T02:27:06;3.10;;;1.50;;
4448;SDS011;2237;51.870;6.160;2024-02-26T02:29:32;8.05;;;1.70;;
4448;SDS011;2237;51.870;6.160;2024-02-26T02:31:59;2.17;;;1.30;;
4448;SDS011;2237;51.870;6.160;2024-02-26T02:34:28;2.72;;;1.50;;
4448;SDS011;2237;51.870;6.160;2024-02-26T02:36:55;5.10;;;1.50;;
4448;SDS011;2237;51.870;6.160;2024-02-26T02:39:21;2.50;;;1.27;;
4448;SDS011;2237;51.870;6.160;2024-02-26T02:41:48;3.70;;;1.23;;
4448;SDS011;2237;51.870;6.160;2024-02-26T02:44:15;3.60;;;1.55;;
4448;SDS011;2237;51.870;6.160;2024-02-26T02:46:41;2.67;;;1.38;;
4448;SDS011;2237;51.870;6.160;2024-02-26T02:49:08;2.47;;;1.45;;
4448;SDS011;2237;51.870;6.160;2024-02-26T02:51:36;3.15;;;1.45;;
4448;SDS011;2237;51.870;6.160;2024-02-26T02:54:03;2.10;;;1.13;;
4448;SDS011;2237;51.870;6.160;2024-02-26T02:56:30;3.50;;;1.35;;
4448;SDS011;2237;51.870;6.160;2024-02-26T02:58:56;1.77;;;1.15;;
4448;SDS011;2237;51.870;6.160;2024-02-26T03:01:23;3.55;;;1.05;;
4448;SDS011;2237;51.870;6.160;2024-02-26T03:03:49;2.28;;;1.20;;
4448;SDS011;2237;51.870;6.160;2024-02-26T03:06:17;2.67;;;1.50;;
4448;SDS011;2237;51.870;6.160;2024-02-26T03:08:43;2.75;;;1.17;;
4448;SDS011;2237;51.870;6.160;2024-02-26T03:11:14;2.35;;;1.48;;
4448;SDS011;2237;51.870;6.160;2024-02-26T03:13:41;1.92;;;1.20;;
4448;SDS011;2237;51.870;6.160;2024-02-26T03:16:08;6.05;;;1.27;;
4448;SDS011;2237;51.870;6.160;2024-02-26T03:18:35;2.33;;;1.30;;
4448;SDS011;2237;51.870;6.160;2024-02-26T03:21:01;2.38;;;1.20;;
4448;SDS011;2237;51.870;6.160;2024-02-26T03:23:28;3.60;;;1.63;;
4448;SDS011;2237;51.870;6.160;2024-02-26T03:25:56;3.33;;;1.38;;
4448;SDS011;2237;51.870;6.160;2024-02-26T03:28:24;1.98;;;1.17;;
4448;SDS011;2237;51.870;6.160;2024-02-26T03:30:50;1.90;;;1.25;;
4448;SDS011;2237;51.870;6.160;2024-02-26T03:33:17;4.60;;;1.67;;
4448;SDS011;2237;51.870;6.160;2024-02-26T03:35:43;2.40;;;1.30;;
4448;SDS011;2237;51.870;6.160;2024-02-26T03:38:10;2.22;;;1.20;;
4448;SDS011;2237;51.870;6.160;2024-02-26T03:40:36;1.35;;;0.82;;
4448;SDS011;2237;51.870;6.160;2024-02-26T03:43:03;3.25;;;1.50;;
4448;SDS011;2237;51.870;6.160;2024-02-26T03:45:30;2.88;;;1.00;;
4448;SDS011;2237;51.870;6.160;2024-02-26T03:47:57;2.47;;;1.40;;
4448;SDS011;2237;51.870;6.160;2024-02-26T03:50:24;3.28;;;1.23;;
4448;SDS011;2237;51.870;6.160;2024-02-26T03:52:50;2.05;;;1.27;;
4448;SDS011;2237;51.870;6.160;2024-02-26T03:55:17;2.67;;;1.50;;
4448;SDS011;2237;51.870;6.160;2024-02-26T03:57:47;2.60;;;1.30;;
4448;SDS011;2237;51.870;6.160;2024-02-26T04:00:13;3.70;;;1.30;;
4448;SDS011;2237;51.870;6.160;2024-02-26T04:02:40;4.05;;;1.50;;
4448;SDS011;2237;51.870;6.160;2024-02-26T04:05:09;4.18;;;1.45;;
4448;SDS011;2237;51.870;6.160;2024-02-26T04:07:36;3.03;;;1.60;;
4448;SDS011;2237;51.870;6.160;2024-02-26T04:10:03;1.88;;;1.15;;
4448;SDS011;2237;51.870;6.160;2024-02-26T04:12:34;5.38;;;1.35;;
4448;SDS011;2237;51.870;6.160;2024-02-26T04:15:01;3.20;;;1.83;;
4448;SDS011;2237;51.870;6.160;2024-02-26T04:17:27;4.93;;;1.75;;
4448;SDS011;2237;51.870;6.160;2024-02-26T04:19:54;2.85;;;1.45;;
4448;SDS011;2237;51.870;6.160;2024-02-26T04:22:20;3.00;;;1.65;;
4448;SDS011;2237;51.870;6.160;2024-02-26T04:24:46;2.20;;;1.40;;
4448;SDS011;2237;51.870;6.160;2024-02-26T04:27:13;2.70;;;1.42;;
4448;SDS011;2237;51.870;6.160;2024-02-26T04:29:40;3.70;;;1.63;;
4448;SDS011;2237;51.870;6.160;2024-02-26T04:32:06;2.92;;;1.60;;
4448;SDS011;2237;51.870;6.160;2024-02-26T04:34:33;2.53;;;1.70;;
4448;SDS011;2237;51.870;6.160;2024-02-26T04:36:59;3.30;;;1.85;;
4448;SDS011;2237;51.870;6.160;2024-02-26T04:39:26;4.60;;;2.00;;
4448;SDS011;2237;51.870;6.160;2024-02-26T04:41:52;3.30;;;1.92;;
4448;SDS011;2237;51.870;6.160;2024-02-26T04:44:19;2.72;;;1.90;;
4448;SDS011;2237;51.870;6.160;2024-02-26T04:46:45;3.47;;;2.20;;
4448;SDS011;2237;51.870;6.160;2024-02-26T04:49:12;7.45;;;2.08;;
4448;SDS011;2237;51.870;6.160;2024-02-26T04:51:38;3.83;;;2.08;;
4448;SDS011;2237;51.870;6.160;2024-02-26T04:54:05;4.05;;;1.83;;
4448;SDS011;2237;51.870;6.160;2024-02-26T04:56:31;3.40;;;1.85;;
4448;SDS011;2237;51.870;6.160;2024-02-26T04:58:57;5.05;;;2.42;;
4448;SDS011;2237;51.870;6.160;2024-02-26T05:01:24;3.55;;;1.98;;
4448;SDS011;2237;51.870;6.160;2024-02-26T05:03:50;3.28;;;1.80;;
4448;SDS011;2237;51.870;6.160;2024-02-26T05:06:17;3.95;;;2.22;;
4448;SDS011;2237;51.870;6.160;2024-02-26T05:08:43;3.78;;;2.08;;
4448;SDS011;2237;51.870;6.160;2024-02-26T05:11:10;4.13;;;2.30;;
4448;SDS011;2237;51.870;6.160;2024-02-26T05:13:37;3.38;;;1.88;;
4448;SDS011;2237;51.870;6.160;2024-02-26T05:16:04;4.53;;;2.28;;
4448;SDS011;2237;51.870;6.160;2024-02-26T05:18:30;2.67;;;1.75;;
4448;SDS011;2237;51.870;6.160;2024-02-26T05:20:57;4.07;;;2.17;;
4448;SDS011;2237;51.870;6.160;2024-02-26T05:23:23;3.80;;;2.28;;
4448;SDS011;2237;51.870;6.160;2024-02-26T05:25:50;4.20;;;2.95;;
4448;SDS011;2237;51.870;6.160;2024-02-26T05:28:16;4.13;;;2.22;;
4448;SDS011;2237;51.870;6.160;2024-02-26T05:30:46;3.95;;;2.20;;
4448;SDS011;2237;51.870;6.160;2024-02-26T05:33:12;4.65;;;2.20;;
4448;SDS011;2237;51.870;6.160;2024-02-26T05:35:43;6.15;;;2.50;;
4448;SDS011;2237;51.870;6.160;2024-02-26T05:38:11;3.60;;;2.10;;
4448;SDS011;2237;51.870;6.160;2024-02-26T05:40:37;5.15;;;2.30;;
4448;SDS011;2237;51.870;6.160;2024-02-26T05:43:04;4.40;;;2.10;;
4448;SDS011;2237;51.870;6.160;2024-02-26T05:45:31;3.95;;;2.30;;
4448;SDS011;2237;51.870;6.160;2024-02-26T05:47:57;3.20;;;1.85;;
4448;SDS011;2237;51.870;6.160;2024-02-26T05:50:24;3.00;;;1.70;;
4448;SDS011;2237;51.870;6.160;2024-02-26T05:52:51;4.85;;;2.20;;
4448;SDS011;2237;51.870;6.160;2024-02-26T05:55:18;4.90;;;2.20;;
4448;SDS011;2237;51.870;6.160;2024-02-26T05:57:44;3.10;;;1.52;;
4448;SDS011;2237;51.870;6.160;2024-02-26T06:00:11;3.05;;;2.00;;
4448;SDS011;2237;51.870;6.160;2024-02-26T06:02:41;4.60;;;2.00;;
4448;SDS011;2237;51.870;6.160;2024-02-26T06:05:07;4.60;;;1.50;;
4448;SDS011;2237;51.870;6.160;2024-02-26T06:07:35;2.90;;;1.58;;
4448;SDS011;2237;51.870;6.160;2024-02-26T06:10:02;3.70;;;2.05;;
4448;SDS011;2237;51.870;6.160;2024-02-26T06:12:30;3.25;;;1.67;;
4448;SDS011;2237;51.870;6.160;2024-02-26T06:14:57;3.13;;;1.83;;
4448;SDS011;2237;51.870;6.160;2024-02-26T06:17:28;2.60;;;1.40;;
4448;SDS011;2237;51.870;6.160;2024-02-26T06:19:54;3.58;;;1.77;;
4448;SDS011;2237;51.870;6.160;2024-02-26T06:22:21;5.03;;;1.80;;
4448;SDS011;2237;51.870;6.160;2024-02-26T06:24:47;4.82;;;2.33;;
4448;SDS011;2237;51.870;6.160;2024-02-26T06:27:14;2.40;;;1.67;;
4448;SDS011;2237;51.870;6.160;2024-02-26T06:29:40;2.58;;;1.58;;
4448;SDS011;2237;51.870;6.160;2024-02-26T06:32:07;3.20;;;1.73;;
4448;SDS011;2237;51.870;6.160;2024-02-26T06:34:33;4.90;;;1.90;;
4448;SDS011;2237;51.870;6.160;2024-02-26T06:37:00;6.05;;;1.83;;
4448;SDS011;2237;51.870;6.160;2024-02-26T06:39:26;2.08;;;1.23;;
4448;SDS011;2237;51.870;6.160;2024-02-26T06:41:53;3.05;;;1.27;;
4448;SDS011;2237;51.870;6.160;2024-02-26T06:44:27;3.15;;;1.17;;
4448;SDS011;2237;51.870;6.160;2024-02-26T06:46:58;3.55;;;1.70;;
4448;SDS011;2237;51.870;6.160;2024-02-26T06:49:28;3.38;;;1.75;;
4448;SDS011;2237;51.870;6.160;2024-02-26T06:51:56;4.05;;;1.85;;
4448;SDS011;2237;51.870;6.160;2024-02-26T06:54:22;3.67;;;1.75;;
4448;SDS011;2237;51.870;6.160;2024-02-26T06:56:49;3.65;;;1.85;;
4448;SDS011;2237;51.870;6.160;2024-02-26T06:59:15;1.27;;;0.93;;
4448;SDS011;2237;51.870;6.160;2024-02-26T07:01:42;3.00;;;1.85;;
4448;SDS011;2237;51.870;6.160;2024-02-26T07:04:09;2.85;;;1.80;;
4448;SDS011;2237;51.870;6.160;2024-02-26T07:06:37;4.55;;;2.00;;
4448;SDS011;2237;51.870;6.160;2024-02-26T07:09:04;3.78;;;2.05;;
4448;SDS011;2237;51.870;6.160;2024-02-26T07:11:30;2.55;;;1.77;;
4448;SDS011;2237;51.870;6.160;2024-02-26T07:13:57;5.55;;;2.05;;
4448;SDS011;2237;51.870;6.160;2024-02-26T07:16:23;3.30;;;1.95;;
4448;SDS011;2237;51.870;6.160;2024-02-26T07:18:50;4.90;;;1.95;;
4448;SDS011;2237;51.870;6.160;2024-02-26T07:21:17;3.47;;;2.35;;
4448;SDS011;2237;51.870;6.160;2024-02-26T07:23:43;4.53;;;2.00;;
4448;SDS011;2237;51.870;6.160;2024-02-26T07:26:10;2.80;;;1.65;;
4448;SDS011;2237;51.870;6.160;2024-02-26T07:28:38;4.28;;;2.47;;
4448;SDS011;2237;51.870;6.160;2024-02-26T07:31:04;4.28;;;2.20;;
4448;SDS011;2237;51.870;6.160;2024-02-26T07:33:31;3.13;;;1.77;;
4448;SDS011;2237;51.870;6.160;2024-02-26T07:35:57;3.67;;;2.40;;
4448;SDS011;2237;51.870;6.160;2024-02-26T07:38:24;3.80;;;2.00;;
4448;SDS011;2237;51.870;6.160;2024-02-26T07:41:07;3.95;;;2.20;;
4448;SDS011;2237;51.870;6.160;2024-02-26T07:43:34;3.88;;;1.88;;
4448;SDS011;2237;51.870;6.160;2024-02-26T07:46:01;4.00;;;2.20;;
4448;SDS011;2237;51.870;6.160;2024-02-26T07:48:27;3.75;;;2.17;;
4448;SDS011;2237;51.870;6.160;2024-02-26T07:50:54;3.60;;;2.08;;
4448;SDS011;2237;51.870;6.160;2024-02-26T07:53:21;3.58;;;2.05;;
4448;SDS011;2237;51.870;6.160;2024-02-26T07:55:47;4.03;;;2.47;;
4448;SDS011;2237;51.870;6.160;2024-02-26T07:58:14;3.53;;;1.90;;
4448;SDS011;2237;51.870;6.160;2024-02-26T08:00:40;4.65;;;2.42;;
4448;SDS011;2237;51.870;6.160;2024-02-26T08:03:06;3.33;;;2.17;;
4448;SDS011;2237;51.870;6.160;2024-02-26T08:05:34;4.40;;;2.35;;
4448;SDS011;2237;51.870;6.160;2024-02-26T08:08:00;4.28;;;2.20;;
4448;SDS011;2237;51.870;6.160;2024-02-26T08:10:27;4.70;;;2.47;;
4448;SDS011;2237;51.870;6.160;2024-02-26T08:12:58;3.80;;;2.15;;
4448;SDS011;2237;51.870;6.160;2024-02-26T08:15:35;5.78;;;3.05;;
4448;SDS011;2237;51.870;6.160;2024-02-26T08:18:03;4.53;;;2.47;;
4448;SDS011;2237;51.870;6.160;2024-02-26T08:20:30;7.55;;;2.45;;
4448;SDS011;2237;51.870;6.160;2024-02-26T08:22:58;3.78;;;2.17;;
4448;SDS011;2237;51.870;6.160;2024-02-26T08:25:24;5.40;;;2.83;;
4448;SDS011;2237;51.870;6.160;2024-02-26T08:27:51;5.35;;;2.58;;
4448;SDS011;2237;51.870;6.160;2024-02-26T08:30:17;4.82;;;2.75;;
4448;SDS011;2237;51.870;6.160;2024-02-26T08:32:45;5.40;;;3.05;;
4448;SDS011;2237;51.870;6.160;2024-02-26T08:35:17;6.65;;;3.42;;
4448;SDS011;2237;51.870;6.160;2024-02-26T08:37:46;5.75;;;2.90;;
4448;SDS011;2237;51.870;6.160;2024-02-26T08:40:14;5.97;;;3.00;;
4448;SDS011;2237;51.870;6.160;2024-02-26T08:42:41;5.38;;;2.92;;
4448;SDS011;2237;51.870;6.160;2024-02-26T08:45:07;5.60;;;2.97;;
4448;SDS011;2237;51.870;6.160;2024-02-26T08:47:36;10.73;;;3.00;;
4448;SDS011;2237;51.870;6.160;2024-02-26T08:50:03;5.60;;;3.25;;
4448;SDS011;2237;51.870;6.160;2024-02-26T08:52:30;7.07;;;3.58;;
4448;SDS011;2237;51.870;6.160;2024-02-26T08:54:57;6.65;;;3.75;;
4448;SDS011;2237;51.870;6.160;2024-02-26T08:57:24;7.22;;;3.80;;
4448;SDS011;2237;51.870;6.160;2024-02-26T08:59:53;5.43;;;3.10;;
4448;SDS011;2237;51.870;6.160;2024-02-26T09:02:19;7.22;;;3.90;;
4448;SDS011;2237;51.870;6.160;2024-02-26T09:04:46;5.68;;;3.30;;
4448;SDS011;2237;51.870;6.160;2024-02-26T09:07:12;10.88;;;4.05;;
4448;SDS011;2237;51.870;6.160;2024-02-26T09:09:39;7.85;;;4.30;;
4448;SDS011;2237;51.870;6.160;2024-02-26T09:12:05;8.05;;;5.10;;
4448;SDS011;2237;51.870;6.160;2024-02-26T09:14:32;8.18;;;3.95;;
4448;SDS011;2237;51.870;6.160;2024-02-26T09:16:59;7.97;;;4.00;;
4448;SDS011;2237;51.870;6.160;2024-02-26T09:19:26;6.90;;;4.05;;
4448;SDS011;2237;51.870;6.160;2024-02-26T09:21:54;9.93;;;3.88;;
4448;SDS011;2237;51.870;6.160;2024-02-26T09:24:24;10.52;;;4.10;;
4448;SDS011;2237;51.870;6.160;2024-02-26T09:26:51;10.45;;;4.95;;
4448;SDS011;2237;51.870;6.160;2024-02-26T09:29:18;8.25;;;4.88;;
4448;SDS011;2237;51.870;6.160;2024-02-26T09:31:44;8.38;;;4.30;;
4448;SDS011;2237;51.870;6.160;2024-02-26T09:34:13;8.15;;;5.03;;
4448;SDS011;2237;51.870;6.160;2024-02-26T09:36:40;9.80;;;4.50;;
4448;SDS011;2237;51.870;6.160;2024-02-26T09:39:07;12.23;;;5.07;;
4448;SDS011;2237;51.870;6.160;2024-02-26T09:41:37;8.82;;;4.78;;
4448;SDS011;2237;51.870;6.160;2024-02-26T09:44:04;10.60;;;4.82;;
4448;SDS011;2237;51.870;6.160;2024-02-26T09:46:31;7.80;;;4.22;;
4448;SDS011;2237;51.870;6.160;2024-02-26T09:48:58;10.20;;;4.50;;
4448;SDS011;2237;51.870;6.160;2024-02-26T09:51:25;8.45;;;5.00;;
4448;SDS011;2237;51.870;6.160;2024-02-26T09:53:52;8.65;;;4.78;;
4448;SDS011;2237;51.870;6.160;2024-02-26T09:56:20;11.65;;;4.88;;
4448;SDS011;2237;51.870;6.160;2024-02-26T09:58:47;6.63;;;4.13;;
4448;SDS011;2237;51.870;6.160;2024-02-26T10:01:20;8.70;;;4.50;;
4448;SDS011;2237;51.870;6.160;2024-02-26T10:03:48;9.40;;;4.50;;
4448;SDS011;2237;51.870;6.160;2024-02-26T10:06:21;8.57;;;4.45;;
4448;SDS011;2237;51.870;6.160;2024-02-26T10:08:48;9.70;;;4.53;;
4448;SDS011;2237;51.870;6.160;2024-02-26T10:11:15;9.55;;;4.43;;
4448;SDS011;2237;51.870;6.160;2024-02-26T10:13:42;9.43;;;4.88;;
4448;SDS011;2237;51.870;6.160;2024-02-26T10:16:08;9.30;;;4.72;;
4448;SDS011;2237;51.870;6.160;2024-02-26T10:18:48;8.80;;;4.47;;
4448;SDS011;2237;51.870;6.160;2024-02-26T10:21:21;9.50;;;4.78;;
4448;SDS011;2237;51.870;6.160;2024-02-26T10:23:49;8.85;;;4.80;;
4448;SDS011;2237;51.870;6.160;2024-02-26T10:26:19;8.05;;;3.85;;
4448;SDS011;2237;51.870;6.160;2024-02-26T10:28:46;9.90;;;4.78;;
4448;SDS011;2237;51.870;6.160;2024-02-26T10:31:17;9.15;;;4.40;;
4448;SDS011;2237;51.870;6.160;2024-02-26T10:33:44;8.45;;;4.22;;
4448;SDS011;2237;51.870;6.160;2024-02-26T10:36:11;7.30;;;3.45;;
4448;SDS011;2237;51.870;6.160;2024-02-26T10:38:38;10.30;;;5.20;;
4448;SDS011;2237;51.870;6.160;2024-02-26T10:41:10;9.85;;;4.82;;
4448;SDS011;2237;51.870;6.160;2024-02-26T10:43:39;7.50;;;3.28;;
4448;SDS011;2237;51.870;6.160;2024-02-26T10:46:06;8.52;;;4.40;;
4448;SDS011;2237;51.870;6.160;2024-02-26T10:48:33;9.98;;;5.13;;
4448;SDS011;2237;51.870;6.160;2024-02-26T10:51:00;8.57;;;4.43;;
4448;SDS011;2237;51.870;6.160;2024-02-26T10:53:28;9.88;;;4.80;;
4448;SDS011;2237;51.870;6.160;2024-02-26T10:56:00;10.63;;;4.93;;
4448;SDS011;2237;51.870;6.160;2024-02-26T10:58:29;9.80;;;4.85;;
4448;SDS011;2237;51.870;6.160;2024-02-26T11:00:57;11.68;;;5.32;;
4448;SDS011;2237;51.870;6.160;2024-02-26T11:03:25;10.15;;;4.63;;
4448;SDS011;2237;51.870;6.160;2024-02-26T11:05:52;12.07;;;5.10;;
4448;SDS011;2237;51.870;6.160;2024-02-26T11:08:20;12.10;;;5.72;;
4448;SDS011;2237;51.870;6.160;2024-02-26T11:10:52;12.60;;;5.95;;
4448;SDS011;2237;51.870;6.160;2024-02-26T11:13:20;11.30;;;5.47;;
4448;SDS011;2237;51.870;6.160;2024-02-26T11:15:47;13.05;;;6.18;;
4448;SDS011;2237;51.870;6.160;2024-02-26T11:18:15;14.63;;;6.60;;
4448;SDS011;2237;51.870;6.160;2024-02-26T11:20:43;13.23;;;6.45;;
4448;SDS011;2237;51.870;6.160;2024-02-26T11:23:10;13.52;;;6.30;;
4448;SDS011;2237;51.870;6.160;2024-02-26T11:25:37;11.43;;;5.78;;
4448;SDS011;2237;51.870;6.160;2024-02-26T11:28:07;12.10;;;6.32;;
4448;SDS011;2237;51.870;6.160;2024-02-26T11:30:39;15.40;;;6.60;;
4448;SDS011;2237;51.870;6.160;2024-02-26T11:33:15;16.05;;;7.45;;
4448;SDS011;2237;51.870;6.160;2024-02-26T11:35:42;15.55;;;6.88;;
4448;SDS011;2237;51.870;6.160;2024-02-26T11:38:12;15.65;;;6.75;;
4448;SDS011;2237;51.870;6.160;2024-02-26T11:40:44;17.33;;;7.68;;
4448;SDS011;2237;51.870;6.160;2024-02-26T11:43:10;16.38;;;7.50;;
4448;SDS011;2237;51.870;6.160;2024-02-26T11:50:39;17.03;;;7.43;;
4448;SDS011;2237;51.870;6.160;2024-02-26T11:53:23;16.52;;;7.63;;
4448;SDS011;2237;51.870;6.160;2024-02-26T11:58:41;15.75;;;7.30;;
4448;SDS011;2237;51.870;6.160;2024-02-26T12:01:54;14.93;;;6.60;;
4448;SDS011;2237;51.870;6.160;2024-02-26T12:04:05;14.30;;;7.28;;
4448;SDS011;2237;51.870;6.160;2024-02-26T12:06:47;16.60;;;7.38;;
4448;SDS011;2237;51.870;6.160;2024-02-26T12:09:31;18.48;;;7.88;;
4448;SDS011;2237;51.870;6.160;2024-02-26T12:11:57;13.70;;;6.32;;
4448;SDS011;2237;51.870;6.160;2024-02-26T12:14:25;15.27;;;7.32;;
4448;SDS011;2237;51.870;6.160;2024-02-26T12:16:52;15.23;;;6.72;;
4448;SDS011;2237;51.870;6.160;2024-02-26T12:19:21;16.50;;;6.70;;
4448;SDS011;2237;51.870;6.160;2024-02-26T12:21:52;12.05;;;5.18;;
4448;SDS011;2237;51.870;6.160;2024-02-26T12:24:21;7.32;;;3.60;;
4448;SDS011;2237;51.870;6.160;2024-02-26T12:26:47;11.65;;;6.03;;
4448;SDS011;2237;51.870;6.160;2024-02-26T12:29:14;9.70;;;4.72;;
4448;SDS011;2237;51.870;6.160;2024-02-26T12:31:41;12.70;;;5.43;;
4448;SDS011;2237;51.870;6.160;2024-02-26T12:34:08;10.73;;;5.60;;
4448;SDS011;2237;51.870;6.160;2024-02-26T12:36:38;13.77;;;5.75;;
4448;SDS011;2237;51.870;6.160;2024-02-26T12:39:06;13.00;;;5.65;;
4448;SDS011;2237;51.870;6.160;2024-02-26T12:41:33;12.52;;;5.25;;
4448;SDS011;2237;51.870;6.160;2024-02-26T12:44:00;8.48;;;4.38;;
4448;SDS011;2237;51.870;6.160;2024-02-26T12:46:27;11.40;;;5.20;;
4448;SDS011;2237;51.870;6.160;2024-02-26T12:48:57;12.25;;;5.38;;
4448;SDS011;2237;51.870;6.160;2024-02-26T12:51:25;12.68;;;5.35;;
4448;SDS011;2237;51.870;6.160;2024-02-26T12:53:53;7.47;;;2.95;;
4448;SDS011;2237;51.870;6.160;2024-02-26T12:56:21;10.27;;;5.13;;
4448;SDS011;2237;51.870;6.160;2024-02-26T12:58:49;8.65;;;4.72;;
4448;SDS011;2237;51.870;6.160;2024-02-26T13:01:18;9.10;;;4.18;;
4448;SDS011;2237;51.870;6.160;2024-02-26T13:03:48;7.03;;;3.60;;
4448;SDS011;2237;51.870;6.160;2024-02-26T13:06:16;11.65;;;4.10;;
4448;SDS011;2237;51.870;6.160;2024-02-26T13:08:44;9.27;;;4.22;;
4448;SDS011;2237;51.870;6.160;2024-02-26T13:11:13;9.02;;;3.90;;
4448;SDS011;2237;51.870;6.160;2024-02-26T13:13:40;8.35;;;4.25;;
4448;SDS011;2237;51.870;6.160;2024-02-26T13:16:07;7.78;;;3.58;;
4448;SDS011;2237;51.870;6.160;2024-02-26T13:18:40;6.85;;;3.53;;
4448;SDS011;2237;51.870;6.160;2024-02-26T13:21:07;7.53;;;3.22;;
4448;SDS011;2237;51.870;6.160;2024-02-26T13:23:45;11.07;;;3.40;;
4448;SDS011;2237;51.870;6.160;2024-02-26T13:26:15;8.25;;;4.05;;
4448;SDS011;2237;51.870;6.160;2024-02-26T13:28:41;8.82;;;3.83;;
4448;SDS011;2237;51.870;6.160;2024-02-26T13:31:08;7.50;;;3.88;;
4448;SDS011;2237;51.870;6.160;2024-02-26T13:33:35;6.88;;;3.30;;
4448;SDS011;2237;51.870;6.160;2024-02-26T13:36:02;8.18;;;3.90;;
4448;SDS011;2237;51.870;6.160;2024-02-26T13:38:30;8.05;;;3.53;;
4448;SDS011;2237;51.870;6.160;2024-02-26T13:40:56;7.28;;;3.83;;
4448;SDS011;2237;51.870;6.160;2024-02-26T13:43:23;7.18;;;3.65;;
4448;SDS011;2237;51.870;6.160;2024-02-26T13:45:50;7.88;;;3.38;;
4448;SDS011;2237;51.870;6.160;2024-02-26T13:48:16;8.43;;;3.40;;
4448;SDS011;2237;51.870;6.160;2024-02-26T13:50:43;7.18;;;3.80;;
4448;SDS011;2237;51.870;6.160;2024-02-26T13:53:12;8.27;;;4.10;;
4448;SDS011;2237;51.870;6.160;2024-02-26T13:55:40;6.68;;;3.78;;
4448;SDS011;2237;51.870;6.160;2024-02-26T13:58:11;7.53;;;3.72;;
4448;SDS011;2237;51.870;6.160;2024-02-26T14:00:40;7.32;;;3.63;;
4448;SDS011;2237;51.870;6.160;2024-02-26T14:03:08;7.45;;;3.92;;
4448;SDS011;2237;51.870;6.160;2024-02-26T14:05:35;7.93;;;3.55;;
4448;SDS011;2237;51.870;6.160;2024-02-26T14:08:01;9.07;;;4.18;;
4448;SDS011;2237;51.870;6.160;2024-02-26T14:10:29;11.50;;;4.75;;
4448;SDS011;2237;51.870;6.160;2024-02-26T14:12:56;9.02;;;3.92;;
4448;SDS011;2237;51.870;6.160;2024-02-26T14:15:23;11.35;;;4.80;;
4448;SDS011;2237;51.870;6.160;2024-02-26T14:17:51;9.75;;;4.68;;
4448;SDS011;2237;51.870;6.160;2024-02-26T14:20:23;9.23;;;4.63;;
4448;SDS011;2237;51.870;6.160;2024-02-26T14:22:50;7.82;;;4.15;;
4448;SDS011;2237;51.870;6.160;2024-02-26T14:25:20;10.38;;;4.75;;
4448;SDS011;2237;51.870;6.160;2024-02-26T14:27:48;7.57;;;3.80;;
4448;SDS011;2237;51.870;6.160;2024-02-26T14:30:14;10.00;;;4.25;;
4448;SDS011;2237;51.870;6.160;2024-02-26T14:32:41;8.50;;;4.65;;
4448;SDS011;2237;51.870;6.160;2024-02-26T14:35:08;7.20;;;3.80;;
4448;SDS011;2237;51.870;6.160;2024-02-26T14:37:41;6.97;;;3.70;;
4448;SDS011;2237;51.870;6.160;2024-02-26T14:40:10;7.60;;;3.88;;
4448;SDS011;2237;51.870;6.160;2024-02-26T14:42:37;7.53;;;4.00;;
4448;SDS011;2237;51.870;6.160;2024-02-26T14:45:04;6.07;;;3.05;;
4448;SDS011;2237;51.870;6.160;2024-02-26T14:47:33;7.95;;;4.07;;
4448;SDS011;2237;51.870;6.160;2024-02-26T14:49:59;8.68;;;3.75;;
4448;SDS011;2237;51.870;6.160;2024-02-26T14:52:26;7.35;;;3.80;;
4448;SDS011;2237;51.870;6.160;2024-02-26T14:54:53;5.88;;;3.05;;
4448;SDS011;2237;51.870;6.160;2024-02-26T14:57:19;7.25;;;3.80;;
4448;SDS011;2237;51.870;6.160;2024-02-26T14:59:46;6.97;;;3.65;;
4448;SDS011;2237;51.870;6.160;2024-02-26T15:02:13;7.80;;;4.25;;
4448;SDS011;2237;51.870;6.160;2024-02-26T15:04:40;9.75;;;4.32;;
4448;SDS011;2237;51.870;6.160;2024-02-26T15:07:06;7.72;;;4.10;;
4448;SDS011;2237;51.870;6.160;2024-02-26T15:09:33;8.35;;;4.53;;
4448;SDS011;2237;51.870;6.160;2024-02-26T15:12:01;8.60;;;4.47;;
4448;SDS011;2237;51.870;6.160;2024-02-26T15:14:28;7.85;;;3.75;;
4448;SDS011;2237;51.870;6.160;2024-02-26T15:16:55;9.70;;;4.35;;
4448;SDS011;2237;51.870;6.160;2024-02-26T15:19:21;8.20;;;4.15;;
4448;SDS011;2237;51.870;6.160;2024-02-26T15:21:48;9.32;;;4.50;;